createdAt,value
2022-09-24T00:01:12.722Z,53.85
2022-09-24T00:03:45.340Z,50.50
2022-09-24T00:06:15.444Z,47.75
2022-09-24T00:08:42.043Z,49.60
2022-09-24T00:11:12.207Z,50.45
2022-09-24T00:13:39.944Z,53.72
2022-09-24T00:16:17.173Z,52.22
2022-09-24T00:18:43.631Z,50.22
2022-09-24T00:21:17.548Z,53.35
2022-09-24T00:23:44.508Z,44.60
2022-09-24T00:26:30.798Z,45.97
2022-09-24T00:28:57.988Z,40.38
2022-09-24T00:31:25.850Z,47.05
2022-09-24T00:33:53.136Z,46.72
2022-09-24T00:36:21.374Z,44.50
2022-09-24T00:38:53.242Z,44.78
2022-09-24T00:41:22.291Z,51.33
2022-09-24T00:43:49.677Z,49.95
2022-09-24T00:46:45.472Z,48.60
2022-09-24T00:49:20.145Z,48.22
2022-09-24T00:54:19.619Z,42.88
2022-09-24T00:56:49.412Z,48.97
2022-09-24T00:59:18.496Z,48.95
2022-09-24T01:01:47.296Z,49.45
2022-09-24T01:04:16.183Z,50.22
2022-09-24T01:06:42.497Z,54.05
2022-09-24T01:09:09.517Z,51.03
2022-09-24T01:11:47.851Z,51.42
2022-09-24T01:14:32.503Z,55.05
2022-09-24T01:19:46.872Z,46.65
2022-09-24T01:22:31.447Z,47.25
2022-09-24T01:25:07.592Z,48.30
2022-09-24T01:27:44.687Z,49.05
2022-09-24T01:30:15.122Z,50.63
2022-09-24T01:32:56.233Z,48.72
2022-09-24T01:35:32.352Z,51.47
2022-09-24T01:38:02.656Z,48.15
2022-09-24T01:40:30.636Z,51.40
2022-09-24T01:42:59.539Z,51.80
2022-09-24T01:45:31.839Z,49.85
2022-09-24T01:48:02.130Z,44.55
2022-09-24T01:50:34.266Z,48.63
2022-09-24T01:53:14.386Z,50.50
2022-09-24T01:55:47.514Z,52.60
2022-09-24T01:58:26.074Z,53.42
2022-09-24T02:01:00.110Z,52.90
2022-09-24T02:03:33.031Z,55.60
2022-09-24T02:06:03.761Z,60.63
2022-09-24T02:08:36.723Z,58.33
2022-09-24T02:11:11.174Z,62.10
2022-09-24T02:13:43.101Z,61.17
2022-09-24T02:16:14.636Z,58.70
2022-09-24T02:18:46.862Z,58.75
2022-09-24T02:21:16.775Z,57.58
2022-09-24T02:23:50.886Z,53.97
2022-09-24T02:26:17.341Z,55.00
2022-09-24T02:28:43.834Z,55.05
2022-09-24T02:31:17.829Z,54.72
2022-09-24T02:34:05.870Z,53.35
2022-09-24T02:36:33.049Z,52.08
2022-09-24T02:38:59.434Z,55.78
2022-09-24T02:41:26.539Z,58.60
2022-09-24T02:43:52.868Z,60.78
2022-09-24T02:46:19.686Z,59.42
2022-09-24T02:48:46.094Z,58.47
2022-09-24T02:51:12.496Z,57.88
2022-09-24T02:53:38.823Z,60.10
2022-09-24T02:56:05.495Z,61.08
2022-09-24T02:58:31.827Z,60.00
2022-09-24T03:00:58.131Z,54.05
2022-09-24T03:03:25.024Z,56.45
2022-09-24T03:05:54.627Z,59.05
2022-09-24T03:08:22.539Z,57.80
2022-09-24T03:10:49.587Z,61.40
2022-09-24T03:13:16.736Z,62.88
2022-09-24T03:15:43.360Z,61.55
2022-09-24T03:18:09.704Z,62.80
2022-09-24T03:20:36.013Z,59.05
2022-09-24T03:23:02.346Z,59.95
2022-09-24T03:25:28.684Z,64.85
2022-09-24T03:27:55.013Z,61.08
2022-09-24T03:30:40.010Z,63.67
2022-09-24T03:33:06.489Z,62.90
2022-09-24T03:35:32.840Z,61.75
2022-09-24T03:37:59.266Z,60.65
2022-09-24T03:40:25.639Z,61.15
2022-09-24T03:42:52.012Z,61.45
2022-09-24T03:45:18.356Z,58.83
2022-09-24T03:47:44.723Z,63.75
2022-09-24T03:50:11.515Z,61.28
2022-09-24T03:52:40.964Z,56.38
2022-09-24T03:55:08.107Z,52.10
2022-09-24T03:57:34.671Z,56.92
2022-09-24T04:00:01.581Z,57.97
2022-09-24T04:02:28.006Z,59.83
2022-09-24T04:04:54.373Z,55.80
2022-09-24T04:07:20.688Z,54.92
2022-09-24T04:09:47.066Z,45.83
2022-09-24T04:12:13.935Z,44.78
2022-09-24T04:14:40.258Z,49.17
2022-09-24T04:17:06.575Z,49.47
2022-09-24T04:19:33.187Z,55.78
2022-09-24T04:21:59.778Z,55.47
2022-09-24T04:24:26.857Z,57.10
2022-09-24T04:26:53.168Z,50.83
2022-09-24T04:29:19.516Z,44.05
2022-09-24T04:31:46.065Z,44.33
2022-09-24T04:34:12.664Z,43.75
2022-09-24T04:36:39.006Z,44.20
2022-09-24T04:39:05.685Z,46.47
2022-09-24T04:41:32.051Z,48.08
2022-09-24T04:43:59.292Z,40.30
2022-09-24T04:46:25.731Z,44.97
2022-09-24T04:48:53.115Z,49.25
2022-09-24T04:51:21.217Z,51.28
2022-09-24T04:53:50.453Z,54.28
2022-09-24T04:56:16.827Z,52.72
2022-09-24T04:58:43.452Z,53.05
2022-09-24T05:01:10.602Z,54.33
2022-09-24T05:03:36.915Z,53.17
2022-09-24T05:06:03.323Z,60.35
2022-09-24T05:08:29.654Z,61.28
2022-09-24T05:10:55.989Z,61.05
2022-09-24T05:13:22.683Z,62.50
2022-09-24T05:15:49.054Z,66.70
2022-09-24T05:18:15.475Z,66.78
2022-09-24T05:20:41.910Z,69.40
2022-09-24T05:23:08.247Z,64.63
2022-09-24T05:25:54.583Z,66.78
2022-09-24T05:28:21.382Z,70.15
2022-09-24T05:30:47.680Z,67.93
2022-09-24T05:33:14.229Z,62.67
2022-09-24T05:35:40.597Z,61.22
2022-09-24T05:38:06.982Z,65.70
2022-09-24T05:40:48.480Z,56.70
2022-09-24T05:43:15.714Z,57.65
2022-09-24T05:45:42.090Z,48.78
2022-09-24T05:48:08.451Z,55.53
2022-09-24T05:50:35.302Z,54.30
2022-09-24T05:53:02.687Z,55.63
2022-09-24T05:55:32.392Z,49.83
2022-09-24T05:58:03.682Z,49.78
2022-09-24T06:00:30.016Z,53.97
2022-09-24T06:03:01.903Z,52.78
2022-09-24T06:05:28.911Z,52.35
2022-09-24T06:07:56.083Z,52.13
2022-09-24T06:10:22.541Z,50.58
2022-09-24T06:12:48.949Z,53.35
2022-09-24T06:15:15.712Z,53.72
2022-09-24T06:17:42.263Z,60.33
2022-09-24T06:20:08.938Z,58.88
2022-09-24T06:22:35.266Z,61.95
2022-09-24T06:25:01.597Z,58.60
2022-09-24T06:27:27.997Z,54.97
2022-09-24T06:29:54.301Z,58.42
2022-09-24T06:32:20.595Z,52.30
2022-09-24T06:34:47.424Z,52.03
2022-09-24T06:37:13.741Z,50.67
2022-09-24T06:39:40.194Z,51.40
2022-09-24T06:42:07.049Z,48.92
2022-09-24T06:44:34.526Z,55.28
2022-09-24T06:47:01.618Z,55.33
2022-09-24T06:49:33.109Z,53.25
2022-09-24T06:52:00.588Z,47.30
2022-09-24T06:54:26.890Z,46.05
2022-09-24T06:56:53.225Z,45.65
2022-09-24T06:59:19.558Z,46.33
2022-09-24T07:01:45.912Z,50.50
2022-09-24T07:04:12.274Z,45.08
2022-09-24T07:06:57.199Z,45.78
2022-09-24T07:09:23.604Z,47.88
2022-09-24T07:11:49.921Z,49.50
2022-09-24T07:14:16.248Z,49.72
2022-09-24T07:16:42.538Z,53.83
2022-09-24T07:19:09.197Z,49.53
2022-09-24T07:21:35.636Z,47.15
2022-09-24T07:24:02.395Z,49.42
2022-09-24T07:26:29.788Z,51.22
2022-09-24T07:28:56.207Z,50.92
2022-09-24T07:31:24.089Z,50.80
2022-09-24T07:33:50.521Z,53.05
2022-09-24T07:36:16.827Z,49.00
2022-09-24T07:38:43.153Z,50.40
2022-09-24T07:41:10.655Z,49.55
2022-09-24T07:43:37.009Z,48.47
2022-09-24T07:46:03.401Z,52.60
2022-09-24T07:48:29.743Z,48.08
2022-09-24T07:50:56.075Z,48.30
2022-09-24T07:53:23.485Z,46.45
2022-09-24T07:55:49.962Z,41.65
2022-09-24T07:58:16.381Z,42.65
2022-09-24T08:00:42.782Z,41.90
2022-09-24T08:03:09.298Z,41.75
2022-09-24T08:05:35.698Z,38.72
2022-09-24T08:08:02.205Z,35.20
2022-09-24T08:10:28.831Z,32.25
2022-09-24T08:12:57.099Z,31.25
2022-09-24T08:15:23.955Z,33.97
2022-09-24T08:17:50.787Z,35.60
2022-09-24T08:20:17.319Z,31.50
2022-09-24T08:22:43.746Z,33.00
2022-09-24T08:25:10.429Z,31.95
2022-09-24T08:27:37.407Z,34.22
2022-09-24T08:30:07.887Z,32.22
2022-09-24T08:32:34.338Z,32.53
2022-09-24T08:35:00.764Z,29.95
2022-09-24T08:37:28.272Z,33.25
2022-09-24T08:39:55.168Z,33.92
2022-09-24T08:42:49.348Z,30.77
2022-09-24T08:45:35.953Z,32.73
2022-09-24T08:48:13.659Z,32.60
2022-09-24T08:50:48.411Z,33.97
2022-09-24T08:53:42.792Z,32.35
2022-09-24T08:56:11.162Z,32.25
2022-09-24T08:58:43.450Z,34.33
2022-09-24T09:01:10.567Z,37.17
2022-09-24T09:03:44.707Z,35.33
2022-09-24T09:06:42.122Z,33.47
2022-09-24T09:09:17.215Z,32.75
2022-09-24T09:11:47.324Z,31.83
2022-09-24T09:14:13.646Z,32.47
2022-09-24T09:16:46.031Z,31.92
2022-09-24T09:19:15.814Z,32.10
2022-09-24T09:21:46.678Z,30.52
2022-09-24T09:24:24.647Z,31.55
2022-09-24T09:26:54.769Z,30.67
2022-09-24T09:29:25.364Z,29.05
2022-09-24T09:32:25.498Z,30.20
2022-09-24T09:35:07.619Z,30.52
2022-09-24T09:37:44.239Z,27.15
2022-09-24T09:40:35.603Z,30.73
2022-09-24T09:43:04.463Z,26.60
2022-09-24T09:45:49.278Z,32.38
2022-09-24T09:48:16.583Z,24.40
2022-09-24T09:50:48.932Z,24.45
2022-09-24T09:53:24.003Z,25.42
2022-09-24T09:56:06.367Z,26.13
2022-09-24T09:58:35.050Z,28.85
2022-09-24T10:01:11.078Z,25.70
2022-09-24T10:03:56.443Z,24.27
2022-09-24T10:06:41.783Z,24.27
2022-09-24T10:09:16.069Z,24.50
2022-09-24T10:11:42.794Z,23.38
2022-09-24T10:14:12.347Z,25.95
2022-09-24T10:16:44.326Z,24.80
2022-09-24T10:19:27.962Z,25.90
2022-09-24T10:21:57.367Z,27.45
2022-09-24T10:24:26.520Z,30.15
2022-09-24T10:26:53.529Z,24.52
2022-09-24T10:29:51.676Z,24.02
2022-09-24T10:32:23.311Z,23.77
2022-09-24T10:35:05.817Z,24.65
2022-09-24T10:37:32.241Z,22.33
2022-09-24T10:40:11.999Z,25.27
2022-09-24T10:42:38.351Z,22.70
2022-09-24T10:45:10.919Z,26.30
2022-09-24T10:47:53.315Z,22.95
2022-09-24T10:50:28.464Z,27.52
2022-09-24T10:53:03.404Z,25.65
2022-09-24T10:55:37.155Z,25.20
2022-09-24T10:58:08.145Z,24.90
2022-09-24T11:00:40.504Z,23.95
2022-09-24T11:03:25.169Z,23.67
2022-09-24T11:08:56.102Z,27.20
2022-09-24T11:11:49.247Z,24.20
2022-09-24T11:14:32.763Z,28.38
2022-09-24T11:17:24.503Z,27.02
2022-09-24T11:20:10.987Z,26.42
2022-09-24T11:23:08.143Z,25.95
2022-09-24T11:25:46.611Z,23.27
2022-09-24T11:28:37.882Z,25.35
2022-09-24T11:31:25.115Z,27.63
2022-09-24T11:33:58.190Z,25.90
2022-09-24T11:36:45.824Z,25.65
2022-09-24T11:39:24.906Z,27.83
2022-09-24T11:42:18.226Z,34.65
2022-09-24T11:45:11.310Z,30.55
2022-09-24T11:47:51.861Z,31.10
2022-09-24T11:50:34.662Z,33.17
2022-09-24T11:53:21.758Z,30.77
2022-09-24T11:55:54.826Z,28.73
2022-09-24T11:58:29.480Z,28.88
2022-09-24T12:01:02.456Z,30.55
2022-09-24T12:03:53.056Z,29.20
2022-09-24T12:06:45.460Z,29.83
2022-09-24T12:09:23.391Z,28.67
2022-09-24T12:11:59.293Z,27.42
2022-09-24T12:14:30.593Z,25.25
2022-09-24T12:17:05.504Z,22.33
2022-09-24T12:19:39.116Z,25.20
2022-09-24T12:22:06.355Z,26.90
2022-09-24T12:24:45.519Z,26.58
2022-09-24T12:27:20.831Z,23.85
2022-09-24T12:30:24.458Z,24.38
2022-09-24T12:32:57.451Z,25.08
2022-09-24T12:35:36.857Z,21.35
2022-09-24T12:38:28.143Z,25.23
2022-09-24T12:41:19.253Z,26.23
2022-09-24T12:43:51.817Z,24.50
2022-09-24T12:46:22.844Z,25.00
2022-09-24T12:48:51.506Z,20.98
2022-09-24T12:51:22.515Z,24.02
2022-09-24T12:54:05.643Z,21.10
2022-09-24T12:56:32.301Z,19.45
2022-09-24T12:58:58.760Z,21.08
2022-09-24T13:01:25.196Z,23.92
2022-09-24T13:04:13.534Z,24.17
2022-09-24T13:06:41.298Z,22.63
2022-09-24T13:09:26.226Z,23.73
2022-09-24T13:12:23.796Z,23.70
2022-09-24T13:15:29.390Z,21.40
2022-09-24T13:18:18.459Z,21.85
2022-09-24T13:20:59.853Z,22.75
2022-09-24T13:23:26.107Z,22.10
2022-09-24T13:25:56.452Z,24.42
2022-09-24T13:28:37.867Z,20.40
2022-09-24T13:31:33.168Z,21.27
2022-09-24T13:34:13.903Z,23.25
2022-09-24T13:36:47.934Z,23.85
2022-09-24T13:39:20.323Z,23.85
2022-09-24T13:41:58.878Z,22.95
2022-09-24T13:44:34.594Z,24.75
2022-09-24T13:47:09.824Z,25.73
2022-09-24T13:49:38.660Z,25.15
2022-09-24T13:52:15.201Z,22.98
2022-09-24T13:54:56.529Z,24.17
2022-09-24T13:57:29.945Z,24.08
2022-09-24T14:00:15.260Z,25.87
2022-09-24T14:02:45.504Z,28.40
2022-09-24T14:05:17.325Z,24.05
2022-09-24T14:07:54.575Z,22.92
2022-09-24T14:10:20.970Z,24.90
2022-09-24T14:12:47.327Z,24.33
2022-09-24T14:15:17.810Z,25.88
2022-09-24T14:17:56.094Z,26.33
2022-09-24T14:20:22.996Z,24.77
2022-09-24T14:22:49.671Z,25.65
2022-09-24T14:25:20.124Z,26.13
2022-09-24T14:27:50.550Z,25.70
2022-09-24T14:30:25.394Z,23.90
2022-09-24T14:32:59.194Z,25.05
2022-09-24T14:35:32.075Z,25.50
2022-09-24T14:38:11.684Z,26.23
2022-09-24T14:40:44.258Z,25.63
2022-09-24T14:43:16.730Z,26.35
2022-09-24T14:45:43.676Z,26.33
2022-09-24T14:48:32.630Z,25.40
2022-09-24T14:50:58.973Z,24.58
2022-09-24T14:53:32.992Z,25.90
2022-09-24T14:55:59.877Z,26.45
2022-09-24T14:58:36.156Z,26.38
2022-09-24T15:01:13.717Z,26.70
2022-09-24T15:03:44.805Z,24.58
2022-09-24T15:06:28.840Z,25.90
2022-09-24T15:08:57.919Z,24.80
2022-09-24T15:11:29.350Z,26.33
2022-09-24T15:14:01.591Z,25.40
2022-09-24T15:16:33.828Z,25.67
2022-09-24T15:19:06.473Z,26.10
2022-09-24T15:21:33.702Z,26.15
2022-09-24T15:24:00.207Z,25.45
2022-09-24T15:26:31.125Z,24.15
2022-09-24T15:28:58.705Z,26.48
2022-09-24T15:31:25.928Z,25.60
2022-09-24T15:33:52.852Z,26.30
2022-09-24T15:36:21.095Z,24.98
2022-09-24T15:38:48.791Z,26.60
2022-09-24T15:41:15.307Z,29.63
2022-09-24T15:43:41.663Z,31.60
2022-09-24T15:46:08.051Z,31.30
2022-09-24T15:48:34.441Z,34.28
2022-09-24T15:51:07.236Z,36.10
2022-09-24T15:53:36.591Z,38.10
2022-09-24T15:56:03.601Z,39.97
2022-09-24T15:58:29.966Z,42.13
2022-09-24T16:00:56.476Z,40.72
2022-09-24T16:03:26.068Z,41.20
2022-09-24T16:05:52.924Z,46.30
2022-09-24T16:08:19.426Z,44.75
2022-09-24T16:10:46.967Z,43.03
2022-09-24T16:13:15.023Z,44.30
2022-09-24T16:15:42.295Z,43.50
2022-09-24T16:18:14.278Z,43.75
2022-09-24T16:20:41.206Z,44.50
2022-09-24T16:23:14.136Z,43.45
2022-09-24T16:25:42.364Z,43.63
2022-09-24T16:28:08.803Z,42.00
2022-09-24T16:30:38.661Z,39.22
2022-09-24T16:33:05.305Z,39.38
2022-09-24T16:35:31.806Z,41.78
2022-09-24T16:37:58.181Z,41.70
2022-09-24T16:40:24.536Z,43.05
2022-09-24T16:42:50.904Z,40.95
2022-09-24T16:45:18.034Z,43.15
2022-09-24T16:47:44.428Z,41.40
2022-09-24T16:50:11.136Z,41.22
2022-09-24T16:52:37.535Z,42.40
2022-09-24T16:55:04.214Z,40.92
2022-09-24T16:57:30.589Z,43.15
2022-09-24T16:59:56.929Z,42.55
2022-09-24T17:02:23.338Z,45.13
2022-09-24T17:04:49.697Z,53.40
2022-09-24T17:07:16.043Z,52.03
2022-09-24T17:10:01.031Z,55.85
2022-09-24T17:12:27.435Z,53.45
2022-09-24T17:14:53.801Z,59.10
2022-09-24T17:17:20.141Z,53.92
2022-09-24T17:19:46.459Z,59.75
2022-09-24T17:22:12.792Z,60.13
2022-09-24T17:24:40.045Z,55.85
2022-09-24T17:27:07.729Z,61.03
2022-09-24T17:29:34.362Z,62.35
2022-09-24T17:32:00.948Z,68.03
2022-09-24T17:34:27.498Z,79.20
2022-09-24T17:36:53.819Z,99.28
2022-09-24T17:39:20.675Z,103.50
2022-09-24T17:41:47.032Z,101.75
2022-09-24T17:44:13.462Z,98.32
2022-09-24T17:46:40.247Z,91.88
2022-09-24T17:49:06.911Z,95.25
2022-09-24T17:51:38.755Z,88.63
2022-09-24T17:54:11.580Z,93.72
2022-09-24T17:56:40.536Z,99.55
2022-09-24T17:59:09.336Z,98.72
2022-09-24T18:01:37.691Z,96.88
2022-09-24T18:04:11.887Z,106.88
2022-09-24T18:06:40.034Z,93.55
2022-09-24T18:09:07.445Z,93.75
2022-09-24T18:11:40.228Z,97.45
2022-09-24T18:14:09.009Z,95.72
2022-09-24T18:16:35.471Z,98.07
2022-09-24T18:19:02.905Z,102.22
2022-09-24T18:21:29.918Z,102.95
2022-09-24T18:23:58.555Z,102.40
2022-09-24T18:26:26.075Z,97.88
2022-09-24T18:28:54.973Z,108.13
2022-09-24T18:31:23.048Z,108.10
2022-09-24T18:33:52.115Z,102.07
2022-09-24T18:36:20.951Z,108.50
2022-09-24T18:38:47.393Z,101.63
2022-09-24T18:41:23.446Z,98.22
2022-09-24T18:43:50.994Z,100.85
2022-09-24T18:46:19.200Z,102.13
2022-09-24T18:48:47.667Z,107.85
2022-09-24T18:51:25.523Z,101.93
2022-09-24T18:54:00.110Z,108.95
2022-09-24T18:56:27.302Z,113.00
2022-09-24T18:59:08.480Z,112.65
2022-09-24T19:01:36.905Z,112.22
2022-09-24T19:04:03.478Z,116.40
2022-09-24T19:06:31.271Z,120.72
2022-09-24T19:08:57.585Z,114.22
2022-09-24T19:11:23.955Z,119.43
2022-09-24T19:13:53.326Z,116.05
2022-09-24T19:16:23.569Z,115.45
2022-09-24T19:18:52.021Z,113.00
2022-09-24T19:21:19.019Z,115.28
2022-09-24T19:23:48.328Z,123.53
2022-09-24T19:26:17.319Z,118.95
2022-09-24T19:28:44.871Z,122.20
2022-09-24T19:31:36.411Z,122.45
2022-09-24T19:34:05.074Z,116.63
2022-09-24T19:36:36.200Z,118.10
2022-09-24T19:39:05.335Z,108.50
2022-09-24T19:41:31.672Z,110.80
2022-09-24T19:44:02.049Z,104.20
2022-09-24T19:46:34.006Z,99.78
2022-09-24T19:49:01.024Z,96.45
2022-09-24T19:51:29.821Z,93.38
2022-09-24T19:54:07.868Z,85.68
2022-09-24T19:56:34.644Z,88.53
2022-09-24T19:59:02.173Z,84.18
2022-09-24T20:01:31.163Z,87.28
2022-09-24T20:03:59.600Z,90.88
2022-09-24T20:06:28.870Z,88.78
2022-09-24T20:08:55.769Z,86.40
2022-09-24T20:11:24.701Z,81.47
2022-09-24T20:13:53.193Z,88.82
2022-09-24T20:16:22.268Z,92.90
2022-09-24T20:18:50.380Z,89.78
2022-09-24T20:21:18.737Z,86.65
2022-09-24T20:23:46.836Z,74.20
2022-09-24T20:26:33.303Z,74.95
2022-09-24T20:28:59.702Z,74.13
2022-09-24T20:31:26.138Z,70.35
2022-09-24T20:33:52.678Z,71.07
2022-09-24T20:36:24.136Z,71.32
2022-09-24T20:38:51.766Z,75.05
2022-09-24T20:41:20.922Z,69.40
2022-09-24T20:43:47.442Z,73.72
2022-09-24T20:46:21.602Z,69.45
2022-09-24T20:51:18.072Z,59.80
2022-09-24T20:53:48.734Z,77.45
2022-09-24T20:56:15.766Z,71.95
2022-09-24T20:58:42.475Z,71.55
2022-09-24T21:01:10.394Z,71.28
2022-09-24T21:03:44.293Z,74.53
2022-09-24T21:06:12.748Z,71.97
2022-09-24T21:08:41.562Z,72.30
2022-09-24T21:11:10.672Z,73.43
2022-09-24T21:13:42.616Z,69.05
2022-09-24T21:16:09.933Z,65.82
2022-09-24T21:18:40.605Z,65.55
2022-09-24T21:21:11.144Z,67.57
2022-09-24T21:23:38.085Z,62.13
2022-09-24T21:26:29.890Z,61.10
2022-09-24T21:29:17.628Z,60.58
2022-09-24T21:31:46.082Z,55.95
2022-09-24T21:34:14.475Z,55.65
2022-09-24T21:36:44.527Z,61.75
2022-09-24T21:39:20.059Z,59.25
2022-09-24T21:41:51.412Z,52.50
2022-09-24T21:44:19.215Z,58.00
2022-09-24T21:46:46.037Z,60.25
2022-09-24T21:49:12.581Z,56.20
2022-09-24T21:51:40.524Z,60.10
2022-09-24T21:54:09.823Z,60.20
2022-09-24T21:56:37.046Z,56.53
2022-09-24T21:59:23.468Z,56.72
2022-09-24T22:01:50.152Z,60.25
2022-09-24T22:04:16.927Z,61.83
2022-09-24T22:06:43.323Z,63.15
2022-09-24T22:09:10.226Z,65.65
2022-09-24T22:11:37.715Z,59.03
2022-09-24T22:14:04.697Z,60.42
2022-09-24T22:16:34.762Z,63.15
2022-09-24T22:19:03.448Z,61.83
2022-09-24T22:21:31.343Z,65.28
2022-09-24T22:23:58.250Z,66.57
2022-09-24T22:26:26.091Z,69.45
2022-09-24T22:28:53.797Z,66.53
2022-09-24T22:31:20.325Z,70.97
2022-09-24T22:34:05.365Z,73.35
2022-09-24T22:36:33.291Z,67.15
2022-09-24T22:39:00.719Z,68.60
2022-09-24T22:41:28.948Z,67.85
2022-09-24T22:43:56.870Z,68.72
2022-09-24T22:46:27.420Z,72.32
2022-09-24T22:48:55.887Z,70.65
2022-09-24T22:51:23.746Z,73.35
2022-09-24T22:53:50.179Z,72.90
2022-09-24T22:56:19.525Z,72.75
2022-09-24T22:58:51.589Z,75.60
2022-09-24T23:01:22.368Z,76.72
2022-09-24T23:03:51.128Z,72.28
2022-09-24T23:06:17.898Z,70.03
2022-09-24T23:08:44.891Z,66.32
2022-09-24T23:11:16.727Z,61.00
2022-09-24T23:13:44.933Z,52.65
2022-09-24T23:16:19.002Z,59.25
2022-09-24T23:18:47.928Z,60.22
2022-09-24T23:21:19.690Z,63.85
2022-09-24T23:23:46.838Z,64.72
2022-09-24T23:26:16.927Z,57.70
2022-09-24T23:28:45.151Z,61.35
2022-09-24T23:31:14.208Z,62.28
2022-09-24T23:33:41.851Z,56.05
2022-09-24T23:36:10.582Z,54.35
2022-09-24T23:38:37.821Z,54.08
2022-09-24T23:41:05.083Z,53.97
2022-09-24T23:43:31.485Z,55.40
2022-09-24T23:45:57.924Z,53.67
2022-09-24T23:48:24.959Z,56.03
2022-09-24T23:50:51.349Z,53.45
2022-09-24T23:53:24.290Z,47.53
2022-09-24T23:55:52.074Z,50.22
2022-09-24T23:58:20.140Z,49.08
